Time;durP1;ratioP1;P1;durP2;ratioP2;P2;SDS_P1;SDS_P2;PMS_P1;PMS_P2;Temp;Humidity;BMP_temperature;BMP_pressure;BME280_temperature;BME280_humidity;BME280_pressure;Samples;Min_cycle;Max_cycle;Signal;HPM_P1;HPM_P2
2023/05/12 00:02:08;;;;;;;;;1.67;1.67;;;;;13.98;74.12;101545.69;5064267;28;45244;-72
2023/05/12 00:04:34;;;;;;;;;2.00;2.00;;;;;14.04;73.77;101548.06;5060985;28;45281;-71
2023/05/12 00:07:00;;;;;;;;;2.00;1.00;;;;;14.00;73.69;101549.13;5067681;27;45553;-71
2023/05/12 00:09:25;;;;;;;;;1.00;1.00;;;;;13.91;72.94;101530.13;5060172;28;45298;-70
2023/05/12 00:11:51;;;;;;;;;3.00;2.00;;;;;13.99;72.67;101542.13;5063230;28;45412;-70
2023/05/12 00:14:16;;;;;;;;;2.00;2.00;;;;;14.01;75.44;101550.00;5070867;28;45620;-70
2023/05/12 00:16:42;;;;;;;;;2.33;1.00;;;;;14.02;76.63;101543.75;5073216;28;45342;-71
2023/05/12 00:19:07;;;;;;;;;1.33;1.33;;;;;13.97;76.35;101541.31;5060476;28;46973;-71
2023/05/12 00:21:32;;;;;;;;;3.33;2.00;;;;;13.98;76.02;101544.84;5061013;28;45421;-70
2023/05/12 00:23:58;;;;;;;;;1.00;1.00;;;;;13.97;72.81;101548.47;5059796;28;45522;-70
2023/05/12 00:26:23;;;;;;;;;1.00;1.00;;;;;13.94;74.87;101545.91;5059578;28;52144;-70
2023/05/12 00:28:49;;;;;;;;;3.00;3.00;;;;;13.86;78.85;101538.34;5060168;28;45430;-72
2023/05/12 00:31:14;;;;;;;;;4.00;3.00;;;;;13.81;77.40;101537.69;5065730;27;45281;-71
2023/05/12 00:33:40;;;;;;;;;3.00;3.00;;;;;13.86;78.79;101542.78;5072698;28;45460;-71
2023/05/12 00:36:06;;;;;;;;;2.33;1.33;;;;;13.75;79.83;101529.16;5071158;28;45462;-71
2023/05/12 00:38:33;;;;;;;;;2.33;2.33;;;;;13.82;83.13;101558.03;5061544;27;45357;-72
2023/05/12 00:40:58;;;;;;;;;1.00;1.00;;;;;13.80;84.34;101546.63;5059760;28;45284;-71
2023/05/12 00:43:23;;;;;;;;;2.00;2.00;;;;;13.72;77.70;101547.91;5069366;28;48285;-71
2023/05/12 00:45:49;;;;;;;;;4.33;1.67;;;;;13.76;77.19;101549.50;5064898;28;45417;-72
2023/05/12 00:48:14;;;;;;;;;1.00;1.00;;;;;13.74;75.36;101551.38;5067181;28;59418;-71
2023/05/12 00:50:40;;;;;;;;;1.00;1.00;;;;;13.73;76.23;101555.81;5062084;28;45326;-71
2023/05/12 00:53:05;;;;;;;;;3.33;2.00;;;;;13.73;74.21;101550.50;5062330;28;45198;-72
2023/05/12 00:55:32;;;;;;;;;2.00;2.00;;;;;13.67;74.57;101542.81;5075708;28;45567;-71
2023/05/12 00:57:58;;;;;;;;;1.67;1.67;;;;;13.73;75.16;101541.66;5077660;28;46255;-71
2023/05/12 01:00:23;;;;;;;;;0.67;0.67;;;;;13.64;74.10;101542.97;5068127;28;45404;-71
2023/05/12 01:02:49;;;;;;;;;3.33;1.67;;;;;13.57;73.69;101522.94;5063462;28;45840;-72
2023/05/12 01:05:14;;;;;;;;;3.00;1.67;;;;;13.66;74.23;101541.09;5068571;28;45517;-71
2023/05/12 01:07:41;;;;;;;;;2.33;1.67;;;;;13.59;74.53;101534.34;5060768;28;45316;-71
2023/05/12 01:10:17;;;;;;;;;2.33;1.00;;;;;13.63;75.32;101543.03;5062748;28;45339;-71
2023/05/12 01:12:43;;;;;;;;;3.00;2.00;;;;;13.56;74.43;101539.81;5061521;27;45275;-71
2023/05/12 01:15:09;;;;;;;;;1.00;1.00;;;;;13.58;74.76;101541.44;5071963;28;45279;-71
2023/05/12 01:17:36;;;;;;;;;2.00;1.00;;;;;13.55;75.06;101528.31;5064225;28;46090;-71
2023/05/12 01:20:05;;;;;;;;;1.33;0.00;;;;;13.58;76.30;101537.94;5072417;28;45516;-71
2023/05/12 01:22:32;;;;;;;;;1.67;1.67;;;;;13.54;77.68;101531.94;5070727;27;45332;-71
2023/05/12 01:25:01;;;;;;;;;5.00;1.67;;;;;13.57;78.37;101539.75;5070646;28;45337;-71
2023/05/12 01:27:28;;;;;;;;;2.00;2.00;;;;;13.60;78.79;101546.72;5071196;28;45637;-71
2023/05/12 01:29:56;;;;;;;;;2.67;1.33;;;;;13.63;78.97;101546.56;5050540;28;45364;-71
2023/05/12 01:32:22;;;;;;;;;3.33;2.00;;;;;13.63;78.28;101546.56;5062612;28;45337;-71
2023/05/12 01:34:49;;;;;;;;;4.00;2.33;;;;;13.60;80.91;101537.88;5069412;28;45560;-71
2023/05/12 01:37:15;;;;;;;;;3.67;2.67;;;;;13.67;82.14;101544.63;5071920;28;45464;-71
2023/05/12 01:39:40;;;;;;;;;4.00;2.00;;;;;13.66;80.82;101548.22;5060580;28;45411;-71
2023/05/12 01:42:06;;;;;;;;;2.00;2.00;;;;;13.66;81.66;101548.22;5075125;28;45317;-71
2023/05/12 01:44:31;;;;;;;;;1.67;1.67;;;;;13.67;84.61;101558.78;5067322;27;45280;-71
2023/05/12 01:46:57;;;;;;;;;1.67;1.00;;;;;13.50;82.12;101526.81;5063243;27;45521;-71
2023/05/12 01:49:22;;;;;;;;;5.00;2.00;;;;;13.62;80.26;101546.63;5064554;28;45342;-71
2023/05/12 01:51:48;;;;;;;;;4.00;2.67;;;;;13.55;81.01;101538.06;5073391;28;45312;-71
2023/05/12 01:54:13;;;;;;;;;2.00;2.00;;;;;13.59;82.21;101539.66;5062108;28;45371;-71
2023/05/12 01:56:39;;;;;;;;;3.33;2.00;;;;;13.52;80.54;101533.78;5073502;28;47214;-71
2023/05/12 01:59:05;;;;;;;;;2.00;2.00;;;;;13.52;79.45;101538.22;5063176;28;45512;-71
2023/05/12 02:01:31;;;;;;;;;2.67;1.33;;;;;13.46;81.22;101527.88;5074417;28;45629;-70
2023/05/12 02:03:57;;;;;;;;;2.67;2.67;;;;;13.53;81.67;101535.50;5066316;28;45749;-71
2023/05/12 02:06:22;;;;;;;;;3.67;2.00;;;;;13.41;80.66;101530.78;5062716;28;45953;-70
2023/05/12 02:08:48;;;;;;;;;2.00;2.00;;;;;13.47;81.36;101549.09;5059185;28;45297;-71
2023/05/12 02:11:14;;;;;;;;;2.00;1.00;;;;;13.37;81.43;101538.97;5070538;28;45496;-71
2023/05/12 02:13:40;;;;;;;;;4.67;2.00;;;;;13.36;80.79;101534.56;5067161;27;45393;-71
2023/05/12 02:16:06;;;;;;;;;4.33;2.00;;;;;13.41;81.86;101549.38;5060511;27;46102;-71
2023/05/12 02:18:32;;;;;;;;;3.00;3.00;;;;;13.38;84.39;101540.69;5065823;28;45243;-71
2023/05/12 02:20:57;;;;;;;;;2.67;2.67;;;;;13.42;86.36;101553.75;5060405;28;45332;-71
2023/05/12 02:23:23;;;;;;;;;3.00;2.00;;;;;13.17;87.32;101515.13;5065643;28;45393;-70
2023/05/12 02:25:48;;;;;;;;;4.00;2.33;;;;;13.30;86.39;101533.06;5066176;28;46155;-71
2023/05/12 02:28:13;;;;;;;;;3.00;2.00;;;;;13.35;86.76;101538.19;5067174;28;45370;-71
2023/05/12 02:30:47;;;;;;;;;2.33;2.33;;;;;13.37;86.42;101546.94;5062583;27;45970;-71
2023/05/12 02:33:16;;;;;;;;;2.00;1.00;;;;;13.34;86.75;101542.63;5068844;28;45470;-71
2023/05/12 02:35:42;;;;;;;;;2.33;1.67;;;;;13.25;84.99;101526.25;5066280;28;46396;-71
2023/05/12 02:38:08;;;;;;;;;4.00;2.33;;;;;13.22;87.37;101526.41;5057670;28;45210;-71
2023/05/12 02:40:33;;;;;;;;;1.67;1.00;;;;;13.23;81.31;101536.94;5069663;28;47998;-71
2023/05/12 02:42:58;;;;;;;;;3.33;2.00;;;;;13.17;83.58;101526.59;5074219;28;45414;-71
2023/05/12 02:45:24;;;;;;;;;3.00;3.00;;;;;13.20;83.47;101536.22;5064397;28;45323;-71
2023/05/12 02:47:49;;;;;;;;;2.00;2.00;;;;;13.21;83.43;101540.63;5064010;28;45753;-71
2023/05/12 02:50:15;;;;;;;;;2.33;1.00;;;;;13.19;84.49;101537.16;5066183;28;45194;-70
2023/05/12 02:52:40;;;;;;;;;3.00;2.00;;;;;13.14;81.71;101537.38;5064202;28;45268;-71
2023/05/12 02:55:06;;;;;;;;;2.00;2.00;;;;;13.15;81.53;101544.41;5061972;28;45907;-71
2023/05/12 02:57:32;;;;;;;;;1.00;1.00;;;;;13.10;83.91;101534.91;5064656;28;45372;-71
2023/05/12 03:00:01;;;;;;;;;2.00;2.00;;;;;13.02;85.95;101521.97;5061582;28;45459;-71
2023/05/12 03:02:26;;;;;;;;;2.67;1.00;;;;;13.13;83.13;101543.59;5065269;28;45527;-71
2023/05/12 03:04:51;;;;;;;;;1.00;1.00;;;;;13.12;84.79;101541.88;5079063;27;47103;-71
2023/05/12 03:07:17;;;;;;;;;1.00;1.00;;;;;13.11;85.58;101534.00;5064964;28;45286;-71
2023/05/12 03:09:42;;;;;;;;;3.00;2.00;;;;;12.96;85.57;101515.13;5068086;28;45413;-71
2023/05/12 03:12:08;;;;;;;;;1.67;1.67;;;;;12.97;83.14;101521.31;5068327;28;45393;-71
2023/05/12 03:14:33;;;;;;;;;2.00;2.00;;;;;12.98;85.81;101531.00;5069340;27;45604;-71
2023/05/12 03:16:58;;;;;;;;;2.00;0.00;;;;;13.00;86.25;101537.09;5063555;28;46984;-71
2023/05/12 03:19:24;;;;;;;;;3.00;2.00;;;;;12.90;86.45;101528.69;5067404;28;45377;-71
2023/05/12 03:21:49;;;;;;;;;2.33;2.00;;;;;12.85;83.92;101533.38;5061031;28;45696;-70
2023/05/12 03:24:15;;;;;;;;;2.00;1.00;;;;;12.87;86.25;101536.78;5060825;28;45399;-70
2023/05/12 03:26:40;;;;;;;;;2.00;1.00;;;;;12.84;88.79;101536.94;5076394;28;45189;-71
2023/05/12 03:29:06;;;;;;;;;1.67;1.67;;;;;12.83;85.14;101540.50;5074394;28;45407;-71
2023/05/12 03:31:32;;;;;;;;;2.33;1.67;;;;;12.79;85.24;101532.78;5071551;28;45208;-71
2023/05/12 03:33:57;;;;;;;;;1.00;1.00;;;;;12.72;83.86;101531.31;5065299;28;47070;-71
2023/05/12 03:36:23;;;;;;;;;4.00;1.00;;;;;12.76;82.90;101541.72;5059736;28;45527;-72
2023/05/12 03:38:48;;;;;;;;;1.00;1.00;;;;;12.73;84.71;101536.53;5074392;28;45375;-72
2023/05/12 03:41:13;;;;;;;;;2.00;1.00;;;;;12.64;84.52;101530.78;5065959;28;52876;-72
2023/05/12 03:43:39;;;;;;;;;2.67;1.00;;;;;12.66;85.78;101544.88;5061124;28;46160;-72
2023/05/12 03:46:04;;;;;;;;;3.67;3.00;;;;;12.52;85.07;101524.22;5071855;28;45400;-72
2023/05/12 03:48:30;;;;;;;;;1.33;1.33;;;;;12.52;85.96;101526.88;5077879;27;45378;-72
2023/05/12 03:50:55;;;;;;;;;1.00;1.00;;;;;12.48;81.06;101536.75;5071479;28;45465;-72
2023/05/12 03:53:20;;;;;;;;;1.00;1.00;;;;;12.51;84.70;101538.41;5089182;27;45470;-71
2023/05/12 03:55:46;;;;;;;;;1.00;1.00;;;;;12.36;84.10;101520.53;5060525;28;45391;-71
2023/05/12 03:58:11;;;;;;;;;1.00;1.00;;;;;12.44;83.41;101543.13;5063660;28;46156;-72
2023/05/12 04:00:36;;;;;;;;;2.00;2.00;;;;;12.45;84.21;101544.00;5072289;28;50175;-72
2023/05/12 04:03:02;;;;;;;;;2.00;1.67;;;;;12.40;79.34;101546.84;5060602;28;51530;-72
2023/05/12 04:05:27;;;;;;;;;1.67;1.67;;;;;12.33;82.08;101540.09;5059100;28;55203;-72
2023/05/12 04:07:52;;;;;;;;;0.00;0.00;;;;;12.34;80.04;101551.53;5060572;28;45670;-71
2023/05/12 04:10:18;;;;;;;;;1.00;1.00;;;;;12.31;82.01;101544.56;5063093;28;56434;-71
2023/05/12 04:12:43;;;;;;;;;1.33;1.33;;;;;12.31;80.28;101546.38;5069965;27;56008;-71
2023/05/12 04:15:08;;;;;;;;;1.00;1.00;;;;;12.19;79.71;101529.19;5072353;28;45642;-72
2023/05/12 04:17:34;;;;;;;;;4.33;1.00;;;;;12.25;80.09;101544.84;5062970;28;45543;-72
2023/05/12 04:19:59;;;;;;;;;3.00;3.00;;;;;12.18;79.54;101537.19;5077265;28;45288;-71
2023/05/12 04:22:25;;;;;;;;;2.00;2.00;;;;;12.22;80.51;101536.16;5069922;27;45298;-71
2023/05/12 04:24:50;;;;;;;;;6.00;1.00;;;;;12.18;84.02;101538.06;5068425;27;45268;-71
2023/05/12 04:27:16;;;;;;;;;1.67;1.67;;;;;12.17;83.20;101552.25;5066922;28;48535;-72
2023/05/12 04:29:41;;;;;;;;;2.00;2.00;;;;;12.09;84.71;101550.84;5072041;28;45432;-71
2023/05/12 04:32:06;;;;;;;;;2.67;1.00;;;;;12.08;85.00;101541.16;5062182;28;45287;-72
2023/05/12 04:34:32;;;;;;;;;0.33;0.33;;;;;11.94;84.80;101531.16;5063094;28;45287;-71
2023/05/12 04:36:57;;;;;;;;;1.67;1.67;;;;;11.93;84.30;101538.25;5067978;28;45727;-72
2023/05/12 04:39:22;;;;;;;;;3.00;3.00;;;;;12.01;87.91;101559.09;5060300;28;58455;-72
2023/05/12 04:41:48;;;;;;;;;8.00;1.00;;;;;11.96;84.94;101546.06;5082896;27;48027;-71
2023/05/12 04:44:14;;;;;;;;;2.00;2.00;;;;;11.92;85.18;101551.53;5061629;28;45274;-71
2023/05/12 04:46:40;;;;;;;;;2.00;2.00;;;;;11.84;85.42;101548.34;5073191;28;45414;-71
2023/05/12 04:49:05;;;;;;;;;5.33;2.00;;;;;11.90;83.30;101562.22;5066822;28;45419;-71
2023/05/12 04:51:31;;;;;;;;;2.00;2.00;;;;;11.88;86.55;101560.53;5063509;27;46163;-72
2023/05/12 04:53:56;;;;;;;;;2.67;2.67;;;;;11.89;87.72;101565.78;5072673;28;45411;-72
2023/05/12 04:56:21;;;;;;;;;1.67;1.67;;;;;11.89;86.88;101559.63;5075037;28;45434;-72
2023/05/12 04:58:47;;;;;;;;;4.00;2.00;;;;;11.89;87.88;101565.78;5064711;28;45462;-72
2023/05/12 05:01:12;;;;;;;;;0.67;0.67;;;;;11.89;86.11;101570.22;5062318;28;46502;-73
2023/05/12 05:03:38;;;;;;;;;3.67;2.00;;;;;11.78;88.50;101554.75;5065606;28;45264;-72
2023/05/12 05:06:04;;;;;;;;;4.00;2.00;;;;;11.87;85.41;101572.94;5067240;27;45352;-72
2023/05/12 05:08:29;;;;;;;;;2.00;2.00;;;;;11.83;89.42;101579.28;5059686;28;45220;-72
2023/05/12 05:10:54;;;;;;;;;2.67;2.33;;;;;11.87;88.59;101582.69;5060906;28;46259;-72
2023/05/12 05:13:20;;;;;;;;;2.67;2.67;;;;;11.87;87.26;101587.97;5074736;27;45246;-72
2023/05/12 05:15:50;;;;;;;;;1.67;1.67;;;;;11.85;85.82;101590.69;5071362;28;48733;-72
2023/05/12 05:18:15;;;;;;;;;3.67;2.33;;;;;11.80;87.55;101576.75;5076026;28;45444;-71
2023/05/12 05:20:41;;;;;;;;;3.67;2.67;;;;;11.87;85.66;101587.97;5066246;27;45957;-72
2023/05/12 05:23:07;;;;;;;;;3.67;2.67;;;;;11.88;86.09;101587.03;5073694;28;45353;-72
2023/05/12 05:25:33;;;;;;;;;3.00;3.00;;;;;11.83;88.37;101581.94;5067102;28;45290;-72
2023/05/12 05:27:58;;;;;;;;;3.00;3.00;;;;;11.80;88.05;101579.41;5059672;28;45233;-71
2023/05/12 05:30:24;;;;;;;;;3.00;2.00;;;;;11.88;90.27;101598.50;5059999;28;45303;-72
2023/05/12 05:32:49;;;;;;;;;5.67;3.00;;;;;11.88;87.05;101592.34;5066420;28;45445;-72
2023/05/12 05:35:15;;;;;;;;;1.67;1.67;;;;;11.86;87.66;101589.78;5065182;28;45380;-72
2023/05/12 05:37:40;;;;;;;;;1.33;1.33;;;;;11.80;89.30;101582.06;5066000;28;45552;-72
2023/05/12 05:40:06;;;;;;;;;3.67;3.67;;;;;11.89;85.74;101591.44;5066641;27;45497;-72
2023/05/12 05:42:32;;;;;;;;;3.00;3.00;;;;;11.83;89.45;101579.28;5069639;28;45324;-71
2023/05/12 05:44:57;;;;;;;;;5.00;3.33;;;;;11.84;85.18;101578.38;5067457;28;45563;-71
2023/05/12 05:47:23;;;;;;;;;4.33;3.33;;;;;11.89;88.08;101583.47;5071600;28;45544;-72
2023/05/12 05:49:48;;;;;;;;;5.00;4.00;;;;;11.89;89.61;101584.34;5071155;28;45455;-72
2023/05/12 05:52:13;;;;;;;;;3.00;2.33;;;;;11.90;91.01;101587.84;5062592;28;47503;-72
2023/05/12 05:54:39;;;;;;;;;3.00;3.00;;;;;11.97;88.23;101592.00;5065528;28;45465;-71
2023/05/12 05:57:04;;;;;;;;;3.00;3.00;;;;;11.98;89.70;101591.91;5081129;27;45810;-71
2023/05/12 05:59:31;;;;;;;;;3.00;3.00;;;;;11.94;89.46;101592.97;5058083;28;45886;-71
2023/05/12 06:01:56;;;;;;;;;2.00;2.00;;;;;12.01;85.92;101596.22;5066957;28;45637;-71
2023/05/12 06:04:22;;;;;;;;;7.67;6.00;;;;;11.95;83.71;101592.03;5059443;28;45358;-72
2023/05/12 06:06:47;;;;;;;;;3.33;3.33;;;;;12.02;86.20;101597.97;5069761;28;52838;-72
2023/05/12 06:09:14;;;;;;;;;3.00;3.00;;;;;12.04;86.48;101601.44;5061215;28;45747;-71
2023/05/12 06:11:39;;;;;;;;;7.00;3.00;;;;;12.06;85.96;101596.91;5060569;28;45295;-71
2023/05/12 06:14:05;;;;;;;;;10.00;4.00;;;;;12.07;86.14;101598.66;5062887;28;45650;-71
2023/05/12 06:16:30;;;;;;;;;2.67;2.33;;;;;12.12;83.37;101601.97;5062086;28;45287;-71
2023/05/12 06:18:55;;;;;;;;;3.00;3.00;;;;;12.16;87.81;101600.06;5063989;28;45418;-72
2023/05/12 06:21:21;;;;;;;;;3.67;3.67;;;;;12.16;83.55;101585.00;5066287;28;45505;-71
2023/05/12 06:23:46;;;;;;;;;5.33;3.00;;;;;12.19;80.22;101591.97;5064805;28;45292;-71
2023/05/12 06:26:12;;;;;;;;;4.33;2.00;;;;;12.23;82.74;101598.88;5063810;28;45364;-72
2023/05/12 06:28:37;;;;;;;;;3.00;3.00;;;;;12.24;81.63;101595.28;5062110;28;46044;-71
2023/05/12 06:31:07;;;;;;;;;2.67;2.00;;;;;12.30;81.75;101603.00;5060958;28;45307;-71
2023/05/12 06:33:32;;;;;;;;;4.00;3.00;;;;;12.39;82.71;101592.00;5067206;28;45399;-71
2023/05/12 06:35:57;;;;;;;;;2.67;2.00;;;;;12.38;79.92;101579.66;5065114;28;45730;-71
2023/05/12 06:38:23;;;;;;;;;3.00;3.00;;;;;12.50;84.13;101589.75;5067658;28;45948;-71
2023/05/12 06:40:48;;;;;;;;;5.67;2.67;;;;;12.51;79.92;101591.47;5065605;28;45387;-71
2023/05/12 06:43:13;;;;;;;;;3.67;2.67;;;;;12.60;82.23;101595.56;5067066;28;45450;-71
2023/05/12 06:45:39;;;;;;;;;4.33;3.67;;;;;12.70;80.77;101594.19;5092301;27;45563;-71
2023/05/12 06:48:04;;;;;;;;;5.00;3.00;;;;;12.71;80.74;101588.84;5062243;28;45343;-71
2023/05/12 06:50:30;;;;;;;;;3.33;2.33;;;;;12.75;78.61;101595.75;5065753;27;45310;-71
2023/05/12 06:52:56;;;;;;;;;4.00;3.00;;;;;12.77;79.66;101601.84;5062054;28;45292;-69
2023/05/12 06:55:21;;;;;;;;;4.67;4.00;;;;;12.81;82.65;101599.91;5062639;28;45439;-70
2023/05/12 06:57:47;;;;;;;;;4.00;3.00;;;;;12.77;80.96;101591.22;5067272;28;45467;-71
2023/05/12 07:00:13;;;;;;;;;6.00;4.00;;;;;12.89;80.12;101601.28;5063351;28;45575;-70
2023/05/12 07:02:38;;;;;;;;;2.00;2.00;;;;;12.96;83.35;101602.75;5069453;28;45820;-71
2023/05/12 07:05:04;;;;;;;;;3.00;3.00;;;;;13.05;82.13;101601.50;5066359;28;55985;-70
2023/05/12 07:07:29;;;;;;;;;4.67;3.33;;;;;13.16;80.77;101593.06;5066108;28;46539;-71
2023/05/12 07:09:55;;;;;;;;;2.00;2.00;;;;;13.08;79.55;101580.13;5063234;28;45583;-70
2023/05/12 07:12:20;;;;;;;;;2.00;2.00;;;;;13.37;81.72;101592.97;5064365;28;45483;-70
2023/05/12 07:14:46;;;;;;;;;4.33;3.00;;;;;13.53;81.41;101595.78;5078185;28;45554;-71
2023/05/12 07:17:11;;;;;;;;;2.00;2.00;;;;;13.60;76.38;101589.25;5072959;28;46248;-70
2023/05/12 07:19:38;;;;;;;;;5.00;3.67;;;;;13.76;77.19;101594.69;5063760;28;45797;-70
2023/05/12 07:22:03;;;;;;;;;2.33;2.33;;;;;13.83;76.33;101599.66;5075192;28;45315;-70
2023/05/12 07:24:29;;;;;;;;;3.33;2.33;;;;;13.81;77.61;101585.53;5074472;28;45439;-71
2023/05/12 07:26:54;;;;;;;;;4.33;2.33;;;;;13.86;76.67;101578.22;5066108;27;45345;-70
2023/05/12 07:29:19;;;;;;;;;6.00;3.00;;;;;13.96;76.90;101590.16;5060880;28;51671;-70
2023/05/12 07:31:45;;;;;;;;;4.00;2.00;;;;;14.04;77.66;101587.94;5074487;28;49014;-71
2023/05/12 07:34:10;;;;;;;;;4.00;3.00;;;;;14.07;77.32;101582.47;5063233;28;45490;-70
2023/05/12 07:36:36;;;;;;;;;5.00;3.00;;;;;14.17;77.47;101592.69;5064966;28;46129;-70
2023/05/12 07:39:01;;;;;;;;;2.00;2.00;;;;;14.00;77.04;101573.06;5066013;28;45394;-70
2023/05/12 07:41:26;;;;;;;;;3.33;3.33;;;;;14.17;78.13;101587.38;5073150;28;45474;-71
2023/05/12 07:43:51;;;;;;;;;3.00;3.00;;;;;14.07;77.20;101582.47;5070665;28;45554;-71
2023/05/12 07:46:17;;;;;;;;;3.67;3.00;;;;;14.17;78.51;101590.88;5064380;28;48859;-70
2023/05/12 07:48:42;;;;;;;;;4.00;4.00;;;;;14.25;77.84;101591.38;5069618;28;53007;-70
2023/05/12 07:51:08;;;;;;;;;2.67;2.67;;;;;14.33;77.87;101581.22;5070589;27;46297;-71
2023/05/12 07:53:34;;;;;;;;;4.67;2.67;;;;;14.39;79.80;101580.06;5068477;28;45382;-71
2023/05/12 07:55:59;;;;;;;;;3.67;2.67;;;;;14.54;77.76;101581.94;5076216;28;46983;-70
2023/05/12 07:58:24;;;;;;;;;4.00;3.00;;;;;14.61;77.94;101583.34;5069300;28;47930;-70
2023/05/12 08:00:50;;;;;;;;;4.00;4.00;;;;;14.67;77.02;101584.81;5079536;27;45380;-70
2023/05/12 08:03:15;;;;;;;;;5.33;2.67;;;;;14.65;76.50;101573.41;5065318;28;49372;-70
2023/05/12 08:05:41;;;;;;;;;3.33;3.00;;;;;14.53;76.91;101573.09;5069461;28;46779;-71
2023/05/12 08:08:11;;;;;;;;;3.67;3.00;;;;;14.68;77.70;101590.09;5063659;28;45790;-71
2023/05/12 08:10:36;;;;;;;;;5.00;3.67;;;;;14.74;77.67;101588.91;5068542;28;45234;-71
2023/05/12 08:13:01;;;;;;;;;3.33;3.00;;;;;14.76;77.54;101582.53;5069134;28;56362;-71
2023/05/12 08:15:27;;;;;;;;;5.00;3.00;;;;;14.84;78.77;101588.34;5069228;28;45841;-71
2023/05/12 08:17:52;;;;;;;;;2.00;2.00;;;;;14.89;77.47;101594.28;5061536;28;45247;-71
2023/05/12 08:20:18;;;;;;;;;3.00;3.00;;;;;14.86;77.27;101581.13;5059092;28;45355;-71
2023/05/12 08:22:43;;;;;;;;;4.67;4.33;;;;;14.99;80.00;101592.00;5072105;28;45361;-71
2023/05/12 08:25:08;;;;;;;;;4.00;4.00;;;;;15.07;79.08;101592.47;5068856;28;45375;-71
2023/05/12 08:27:34;;;;;;;;;2.67;2.33;;;;;15.07;77.50;101588.00;5064312;28;48784;-71
2023/05/12 08:29:59;;;;;;;;;7.00;5.33;;;;;15.04;78.44;101593.50;5061906;27;45985;-71
2023/05/12 08:32:25;;;;;;;;;7.33;3.00;;;;;14.90;78.01;101585.34;5062168;28;45559;-71
2023/05/12 08:34:50;;;;;;;;;5.00;4.00;;;;;14.98;81.85;101600.94;5063534;28;46097;-71
2023/05/12 08:37:15;;;;;;;;;5.00;4.00;;;;;14.96;82.92;101586.81;5062734;28;45430;-71
2023/05/12 08:39:41;;;;;;;;;6.33;4.00;;;;;14.93;82.33;101602.97;5059397;28;45288;-71
2023/05/12 08:42:23;;;;;;;;;5.00;5.00;;;;;14.82;86.31;101600.88;5071035;28;45327;-71
2023/05/12 08:44:48;;;;;;;;;5.00;5.00;;;;;14.76;88.04;101603.84;5068208;27;45374;-70
2023/05/12 08:47:15;;;;;;;;;7.67;6.00;;;;;14.70;88.13;101604.16;5070010;28;45434;-70
2023/05/12 08:49:42;;;;;;;;;4.00;3.33;;;;;14.58;87.19;101605.69;5072262;28;45520;-70
2023/05/12 08:52:11;;;;;;;;;5.00;5.00;;;;;14.53;89.48;101604.16;5071030;28;45426;-69
2023/05/12 08:54:37;;;;;;;;;1.00;1.00;;;;;14.46;91.89;101600.94;5071092;28;45410;-70
2023/05/12 08:57:03;;;;;;;;;5.33;3.67;;;;;14.42;89.45;101614.50;5073339;28;45322;-70
2023/05/12 08:59:29;;;;;;;;;8.33;7.33;;;;;14.39;90.95;101612.88;5067369;28;45458;-70
2023/05/12 09:01:55;;;;;;;;;13.00;10.00;;;;;14.21;91.65;101591.56;5065068;27;45300;-70
2023/05/12 09:04:20;;;;;;;;;10.67;7.33;;;;;14.29;92.13;101618.69;5057557;28;46089;-70
2023/05/12 09:06:46;;;;;;;;;10.33;8.00;;;;;14.22;90.58;101628.78;5073895;27;45358;-70
2023/05/12 09:09:14;;;;;;;;;7.33;6.67;;;;;14.13;91.78;101613.25;5063573;28;45503;-70
2023/05/12 09:11:41;;;;;;;;;9.67;9.67;;;;;14.12;92.95;101621.31;5061434;28;45395;-70
2023/05/12 09:14:11;;;;;;;;;10.67;7.33;;;;;14.09;93.53;101623.19;5074311;28;46213;-70
2023/05/12 09:16:41;;;;;;;;;12.00;10.67;;;;;14.05;95.54;101624.25;5076061;28;45614;-70
2023/05/12 09:19:07;;;;;;;;;14.33;12.33;;;;;14.08;96.50;101617.94;5059183;28;45233;-70
2023/05/12 09:21:33;;;;;;;;;17.67;13.00;;;;;14.01;94.56;101614.69;5065318;28;45460;-71
2023/05/12 09:24:04;;;;;;;;;12.00;12.00;;;;;13.97;96.87;101618.44;5070113;28;46506;-70
2023/05/12 09:26:31;;;;;;;;;13.00;12.00;;;;;13.96;96.93;101627.38;5062035;28;45233;-70
2023/05/12 09:29:07;;;;;;;;;15.33;11.33;;;;;13.92;100.00;101623.13;5071681;28;45429;-71
2023/05/12 09:31:32;;;;;;;;;14.33;12.67;;;;;13.90;100.00;101619.69;5062079;28;45473;-70
2023/05/12 09:33:58;;;;;;;;;9.67;9.00;;;;;13.95;100.00;101622.13;5057264;28;47195;-70
2023/05/12 09:36:24;;;;;;;;;16.67;11.33;;;;;13.97;100.00;101618.44;5068489;28;45415;-70
2023/05/12 09:39:03;;;;;;;;;14.67;10.67;;;;;14.09;100.00;101617.88;5060411;28;45592;-69
2023/05/12 09:41:29;;;;;;;;;14.00;12.00;;;;;14.17;100.00;101612.16;5058383;28;45537;-69
2023/05/12 09:43:55;;;;;;;;;16.67;14.33;;;;;14.34;100.00;101627.31;5058827;28;45472;-70
2023/05/12 09:46:20;;;;;;;;;9.33;9.33;;;;;14.43;100.00;101618.91;5070870;28;45502;-70
2023/05/12 09:48:47;;;;;;;;;13.00;11.67;;;;;14.59;100.00;101617.19;5058970;28;45355;-70
2023/05/12 09:51:17;;;;;;;;;10.67;10.33;;;;;14.63;100.00;101612.56;5059154;28;45546;-70
2023/05/12 09:53:43;;;;;;;;;13.00;12.00;;;;;14.73;100.00;101613.78;5070660;28;46182;-69
2023/05/12 09:56:14;;;;;;;;;9.33;6.33;;;;;14.83;100.00;101612.38;5071281;27;45507;-70
2023/05/12 09:58:43;;;;;;;;;12.67;12.00;;;;;14.86;100.00;101613.09;5079095;27;45319;-70
2023/05/12 10:01:11;;;;;;;;;13.00;8.33;;;;;14.91;100.00;101615.53;5069435;28;45253;-70
2023/05/12 10:03:39;;;;;;;;;7.67;7.00;;;;;14.89;100.00;101620.91;5066450;28;46941;-70
2023/05/12 10:06:08;;;;;;;;;6.00;6.00;;;;;14.91;100.00;101616.38;5064138;27;45546;-70
2023/05/12 10:08:37;;;;;;;;;4.33;4.33;;;;;14.91;96.53;101612.84;5067941;28;45289;-70
2023/05/12 10:11:04;;;;;;;;;7.33;6.00;;;;;14.88;95.76;101613.03;5062638;28;45576;-71
2023/05/12 10:13:31;;;;;;;;;6.00;5.00;;;;;14.91;96.09;101611.06;5065956;28;45461;-70
2023/05/12 10:15:57;;;;;;;;;7.33;6.33;;;;;14.96;95.27;101606.34;5059595;28;45433;-71
2023/05/12 10:18:23;;;;;;;;;6.67;5.00;;;;;14.97;95.50;101597.41;5071057;28;45449;-70
2023/05/12 10:20:50;;;;;;;;;5.33;5.33;;;;;15.10;94.02;101605.63;5066286;28;46107;-71
2023/05/12 10:23:17;;;;;;;;;5.33;5.00;;;;;15.12;95.59;101606.38;5063474;28;45478;-71
2023/05/12 10:25:43;;;;;;;;;8.00;6.67;;;;;15.01;91.65;101598.13;5063620;28;45456;-71
2023/05/12 10:28:09;;;;;;;;;5.67;5.00;;;;;15.06;93.70;101612.91;5059309;28;45441;-71
2023/05/12 10:30:37;;;;;;;;;6.67;6.33;;;;;15.08;95.35;101613.69;5070034;28;45965;-70
2023/05/12 10:33:02;;;;;;;;;5.67;3.00;;;;;15.12;90.83;101609.06;5068172;27;46055;-70
2023/05/12 10:35:32;;;;;;;;;5.33;5.33;;;;;15.11;88.96;101604.69;5061807;28;45533;-70
2023/05/12 10:38:18;;;;;;;;;5.00;3.00;;;;;15.20;93.38;101601.53;5058832;28;45325;-70
2023/05/12 10:41:01;;;;;;;;;5.67;4.00;;;;;15.33;89.93;101607.91;5059958;28;45583;-70
2023/05/12 10:43:28;;;;;;;;;6.00;4.00;;;;;15.37;86.68;101604.16;5062375;28;45431;-70
2023/05/12 10:46:15;;;;;;;;;4.00;4.00;;;;;15.37;86.57;101603.28;5058747;28;45539;-70
2023/05/12 10:49:08;;;;;;;;;4.00;3.00;;;;;15.43;85.38;101600.28;5061338;28;45370;-69
2023/05/12 10:51:36;;;;;;;;;4.33;3.00;;;;;15.51;86.50;101604.28;5066206;28;45466;-69
2023/05/12 10:54:04;;;;;;;;;2.67;2.67;;;;;15.50;85.90;101588.38;5061265;28;46184;-70
2023/05/12 10:56:42;;;;;;;;;6.00;3.33;;;;;15.53;87.05;101593.53;5064945;28;45488;-70
2023/05/12 10:59:18;;;;;;;;;4.00;4.00;;;;;15.54;87.79;101590.78;5062955;27;45458;-71
2023/05/12 11:01:59;;;;;;;;;4.33;3.00;;;;;15.48;84.80;101596.44;5065009;28;45314;-71
2023/05/12 11:04:41;;;;;;;;;4.67;3.00;;;;;15.44;85.48;101594.88;5071497;28;45316;-71
2023/05/12 11:07:09;;;;;;;;;3.67;3.00;;;;;15.46;85.82;101595.66;5057974;28;45457;-71
2023/05/12 11:09:37;;;;;;;;;3.00;3.00;;;;;15.45;85.87;101577.06;5060966;27;45441;-71
2023/05/12 11:12:02;;;;;;;;;6.33;4.67;;;;;15.53;88.01;101594.41;5073905;28;45297;-71
2023/05/12 11:14:28;;;;;;;;;5.00;3.33;;;;;15.53;84.78;101586.41;5071641;27;45954;-71
2023/05/12 11:16:54;;;;;;;;;4.00;4.00;;;;;15.56;90.15;101588.03;5068071;27;45428;-71
2023/05/12 11:19:19;;;;;;;;;6.00;3.33;;;;;15.58;89.44;101580.78;5073072;28;45507;-71
2023/05/12 11:21:45;;;;;;;;;3.67;3.67;;;;;15.58;85.53;101580.78;5061456;28;45355;-71